sensor_id;sensor_type;location;lat;lon;timestamp;temperature;humidity
35325;DHT22;35135;47.510;19.036;2022-12-07T00:01:27;20.10;56.10
35325;DHT22;35135;47.510;19.036;2022-12-07T00:03:54;20.10;56.10
35325;DHT22;35135;47.510;19.036;2022-12-07T00:06:22;20.10;56.10
35325;DHT22;35135;47.510;19.036;2022-12-07T00:08:48;20.10;56.10
35325;DHT22;35135;47.510;19.036;2022-12-07T00:11:19;20.10;56.10
35325;DHT22;35135;47.510;19.036;2022-12-07T00:13:46;20.10;56.10
35325;DHT22;35135;47.510;19.036;2022-12-07T00:16:14;20.10;56.10
35325;DHT22;35135;47.510;19.036;2022-12-07T00:18:41;20.10;56.10
35325;DHT22;35135;47.510;19.036;2022-12-07T00:21:11;20.10;56.10
35325;DHT22;35135;47.510;19.036;2022-12-07T00:23:37;20.10;56.10
35325;DHT22;35135;47.510;19.036;2022-12-07T00:26:04;20.10;56.10
35325;DHT22;35135;47.510;19.036;2022-12-07T00:28:30;20.10;56.10
35325;DHT22;35135;47.510;19.036;2022-12-07T00:31:04;20.10;56.00
35325;DHT22;35135;47.510;19.036;2022-12-07T00:33:30;20.10;56.00
35325;DHT22;35135;47.510;19.036;2022-12-07T00:35:57;20.10;56.10
35325;DHT22;35135;47.510;19.036;2022-12-07T00:38:23;20.10;56.00
35325;DHT22;35135;47.510;19.036;2022-12-07T00:40:57;20.10;56.00
35325;DHT22;35135;47.510;19.036;2022-12-07T00:43:23;20.10;56.00
35325;DHT22;35135;47.510;19.036;2022-12-07T00:45:49;20.00;55.90
35325;DHT22;35135;47.510;19.036;2022-12-07T00:48:14;20.10;56.10
35325;DHT22;35135;47.510;19.036;2022-12-07T00:50:40;20.00;56.00
35325;DHT22;35135;47.510;19.036;2022-12-07T00:53:06;20.00;55.90
35325;DHT22;35135;47.510;19.036;2022-12-07T00:55:35;20.10;56.00
35325;DHT22;35135;47.510;19.036;2022-12-07T00:58:01;20.00;56.00
35325;DHT22;35135;47.510;19.036;2022-12-07T01:00:26;20.00;56.00
35325;DHT22;35135;47.510;19.036;2022-12-07T01:02:52;20.00;56.00
35325;DHT22;35135;47.510;19.036;2022-12-07T01:05:18;20.00;56.00
35325;DHT22;35135;47.510;19.036;2022-12-07T01:07:44;20.00;56.00
35325;DHT22;35135;47.510;19.036;2022-12-07T01:10:10;20.00;55.90
35325;DHT22;35135;47.510;19.036;2022-12-07T01:12:35;20.00;55.90
35325;DHT22;35135;47.510;19.036;2022-12-07T01:15:01;20.00;55.90
35325;DHT22;35135;47.510;19.036;2022-12-07T01:17:28;20.00;55.90
35325;DHT22;35135;47.510;19.036;2022-12-07T01:19:53;20.00;55.90
35325;DHT22;35135;47.510;19.036;2022-12-07T01:22:19;20.00;55.90
35325;DHT22;35135;47.510;19.036;2022-12-07T01:24:44;20.00;55.90
35325;DHT22;35135;47.510;19.036;2022-12-07T01:27:12;20.00;55.90
35325;DHT22;35135;47.510;19.036;2022-12-07T01:29:38;20.00;55.90
35325;DHT22;35135;47.510;19.036;2022-12-07T01:32:03;20.00;55.90
35325;DHT22;35135;47.510;19.036;2022-12-07T01:34:29;20.00;55.90
35325;DHT22;35135;47.510;19.036;2022-12-07T01:36:55;20.00;55.90
35325;DHT22;35135;47.510;19.036;2022-12-07T01:39:20;20.00;55.90
35325;DHT22;35135;47.510;19.036;2022-12-07T01:41:46;20.00;55.90
35325;DHT22;35135;47.510;19.036;2022-12-07T01:44:22;20.00;55.90
35325;DHT22;35135;47.510;19.036;2022-12-07T01:47:00;20.00;55.90
35325;DHT22;35135;47.510;19.036;2022-12-07T01:49:39;19.90;55.80
35325;DHT22;35135;47.510;19.036;2022-12-07T01:52:28;20.00;55.90
35325;DHT22;35135;47.510;19.036;2022-12-07T01:55:07;20.00;55.90
35325;DHT22;35135;47.510;19.036;2022-12-07T01:57:36;19.90;55.80
35325;DHT22;35135;47.510;19.036;2022-12-07T02:00:04;19.90;55.80
35325;DHT22;35135;47.510;19.036;2022-12-07T02:02:33;19.90;55.80
35325;DHT22;35135;47.510;19.036;2022-12-07T02:05:01;19.90;55.80
35325;DHT22;35135;47.510;19.036;2022-12-07T02:07:28;19.90;55.80
35325;DHT22;35135;47.510;19.036;2022-12-07T02:09:54;19.90;55.80
35325;DHT22;35135;47.510;19.036;2022-12-07T02:12:20;19.90;55.70
35325;DHT22;35135;47.510;19.036;2022-12-07T02:14:47;19.90;55.70
35325;DHT22;35135;47.510;19.036;2022-12-07T02:23:04;19.90;55.70
35325;DHT22;35135;47.510;19.036;2022-12-07T02:30:44;19.90;55.70
35325;DHT22;35135;47.510;19.036;2022-12-07T02:33:26;19.90;55.70
35325;DHT22;35135;47.510;19.036;2022-12-07T02:36:08;19.90;55.70
35325;DHT22;35135;47.510;19.036;2022-12-07T02:38:59;19.90;55.70
35325;DHT22;35135;47.510;19.036;2022-12-07T02:41:36;19.90;55.70
35325;DHT22;35135;47.510;19.036;2022-12-07T02:44:07;19.90;55.70
35325;DHT22;35135;47.510;19.036;2022-12-07T02:46:37;19.90;55.70
35325;DHT22;35135;47.510;19.036;2022-12-07T02:49:04;19.90;55.60
35325;DHT22;35135;47.510;19.036;2022-12-07T02:51:31;19.90;55.70
35325;DHT22;35135;47.510;19.036;2022-12-07T02:53:57;19.90;55.60
35325;DHT22;35135;47.510;19.036;2022-12-07T03:07:06;19.90;55.60
35325;DHT22;35135;47.510;19.036;2022-12-07T03:10:01;19.90;55.60
35325;DHT22;35135;47.510;19.036;2022-12-07T03:13:04;19.90;55.60
35325;DHT22;35135;47.510;19.036;2022-12-07T03:16:18;19.90;55.60
35325;DHT22;35135;47.510;19.036;2022-12-07T03:18:25;19.90;55.60
35325;DHT22;35135;47.510;19.036;2022-12-07T03:20:56;19.90;55.60
35325;DHT22;35135;47.510;19.036;2022-12-07T03:23:23;19.90;55.60
35325;DHT22;35135;47.510;19.036;2022-12-07T03:25:54;19.90;55.50
35325;DHT22;35135;47.510;19.036;2022-12-07T03:28:24;19.90;55.50
35325;DHT22;35135;47.510;19.036;2022-12-07T03:31:25;19.90;55.50
35325;DHT22;35135;47.510;19.036;2022-12-07T03:36:46;19.90;55.50
35325;DHT22;35135;47.510;19.036;2022-12-07T03:41:50;19.90;55.50
35325;DHT22;35135;47.510;19.036;2022-12-07T03:44:16;19.90;55.50
35325;DHT22;35135;47.510;19.036;2022-12-07T03:49:36;19.90;55.50
35325;DHT22;35135;47.510;19.036;2022-12-07T03:52:25;19.90;55.40
35325;DHT22;35135;47.510;19.036;2022-12-07T03:55:02;19.90;55.40
35325;DHT22;35135;47.510;19.036;2022-12-07T03:57:31;19.90;55.40
35325;DHT22;35135;47.510;19.036;2022-12-07T03:59:58;19.90;55.40
35325;DHT22;35135;47.510;19.036;2022-12-07T04:02:26;19.90;55.40
35325;DHT22;35135;47.510;19.036;2022-12-07T04:04:53;19.90;55.40
35325;DHT22;35135;47.510;19.036;2022-12-07T04:07:19;19.90;55.40
35325;DHT22;35135;47.510;19.036;2022-12-07T04:09:44;19.90;55.40
35325;DHT22;35135;47.510;19.036;2022-12-07T04:12:10;19.90;55.30
35325;DHT22;35135;47.510;19.036;2022-12-07T04:14:36;19.90;55.30
35325;DHT22;35135;47.510;19.036;2022-12-07T04:17:01;19.90;55.30
35325;DHT22;35135;47.510;19.036;2022-12-07T04:19:29;19.80;55.30
35325;DHT22;35135;47.510;19.036;2022-12-07T04:21:56;19.90;55.30
35325;DHT22;35135;47.510;19.036;2022-12-07T04:24:22;19.90;55.30
35325;DHT22;35135;47.510;19.036;2022-12-07T04:26:48;19.90;55.30
35325;DHT22;35135;47.510;19.036;2022-12-07T04:29:15;19.80;55.20
35325;DHT22;35135;47.510;19.036;2022-12-07T04:31:41;19.80;55.20
35325;DHT22;35135;47.510;19.036;2022-12-07T04:34:07;19.80;55.20
35325;DHT22;35135;47.510;19.036;2022-12-07T04:36:33;19.80;55.20
35325;DHT22;35135;47.510;19.036;2022-12-07T04:38:59;19.90;55.30
35325;DHT22;35135;47.510;19.036;2022-12-07T04:41:25;19.80;55.20
35325;DHT22;35135;47.510;19.036;2022-12-07T04:44:02;19.80;55.20
35325;DHT22;35135;47.510;19.036;2022-12-07T04:46:29;19.80;55.20
35325;DHT22;35135;47.510;19.036;2022-12-07T04:48:56;19.80;55.20
35325;DHT22;35135;47.510;19.036;2022-12-07T04:51:27;19.80;55.20
35325;DHT22;35135;47.510;19.036;2022-12-07T04:53:54;19.90;55.20
35325;DHT22;35135;47.510;19.036;2022-12-07T04:56:20;19.80;55.20
35325;DHT22;35135;47.510;19.036;2022-12-07T04:58:47;19.90;55.20
35325;DHT22;35135;47.510;19.036;2022-12-07T05:01:14;19.90;55.20
35325;DHT22;35135;47.510;19.036;2022-12-07T05:03:41;19.80;55.20
35325;DHT22;35135;47.510;19.036;2022-12-07T05:06:08;19.80;55.20
35325;DHT22;35135;47.510;19.036;2022-12-07T05:08:34;19.80;55.20
35325;DHT22;35135;47.510;19.036;2022-12-07T05:11:00;19.80;55.10
35325;DHT22;35135;47.510;19.036;2022-12-07T05:13:26;19.80;55.10
35325;DHT22;35135;47.510;19.036;2022-12-07T05:15:51;19.80;55.10
35325;DHT22;35135;47.510;19.036;2022-12-07T05:18:17;19.80;55.10
35325;DHT22;35135;47.510;19.036;2022-12-07T05:20:44;19.80;55.10
35325;DHT22;35135;47.510;19.036;2022-12-07T05:23:10;19.80;55.10
35325;DHT22;35135;47.510;19.036;2022-12-07T05:25:36;19.80;55.10
35325;DHT22;35135;47.510;19.036;2022-12-07T05:28:02;19.80;55.10
35325;DHT22;35135;47.510;19.036;2022-12-07T05:30:28;19.80;55.10
35325;DHT22;35135;47.510;19.036;2022-12-07T05:32:53;19.80;55.10
35325;DHT22;35135;47.510;19.036;2022-12-07T05:35:19;19.80;55.10
35325;DHT22;35135;47.510;19.036;2022-12-07T05:37:45;19.80;55.10
35325;DHT22;35135;47.510;19.036;2022-12-07T05:40:12;19.80;55.10
35325;DHT22;35135;47.510;19.036;2022-12-07T05:42:39;19.80;55.10
35325;DHT22;35135;47.510;19.036;2022-12-07T05:45:05;19.80;55.00
35325;DHT22;35135;47.510;19.036;2022-12-07T05:47:31;19.80;55.10
35325;DHT22;35135;47.510;19.036;2022-12-07T05:49:56;19.80;55.10
35325;DHT22;35135;47.510;19.036;2022-12-07T05:52:22;19.80;55.10
35325;DHT22;35135;47.510;19.036;2022-12-07T05:54:48;19.80;55.00
35325;DHT22;35135;47.510;19.036;2022-12-07T05:57:14;19.80;55.10
35325;DHT22;35135;47.510;19.036;2022-12-07T05:59:39;19.80;55.10
35325;DHT22;35135;47.510;19.036;2022-12-07T06:02:08;19.80;55.10
35325;DHT22;35135;47.510;19.036;2022-12-07T06:04:37;19.80;55.00
35325;DHT22;35135;47.510;19.036;2022-12-07T06:07:04;19.90;55.00
35325;DHT22;35135;47.510;19.036;2022-12-07T06:09:31;20.00;55.50
35325;DHT22;35135;47.510;19.036;2022-12-07T06:11:57;20.10;54.80
35325;DHT22;35135;47.510;19.036;2022-12-07T06:14:42;20.20;54.50
35325;DHT22;35135;47.510;19.036;2022-12-07T06:17:08;20.30;54.40
35325;DHT22;35135;47.510;19.036;2022-12-07T06:19:34;20.50;54.30
35325;DHT22;35135;47.510;19.036;2022-12-07T06:22:01;20.60;54.20
35325;DHT22;35135;47.510;19.036;2022-12-07T06:24:27;20.70;54.10
35325;DHT22;35135;47.510;19.036;2022-12-07T06:26:52;20.80;54.20
35325;DHT22;35135;47.510;19.036;2022-12-07T06:29:18;21.00;54.00
35325;DHT22;35135;47.510;19.036;2022-12-07T06:31:44;21.10;53.70
35325;DHT22;35135;47.510;19.036;2022-12-07T06:34:13;21.10;53.50
35325;DHT22;35135;47.510;19.036;2022-12-07T06:36:39;21.20;53.40
35325;DHT22;35135;47.510;19.036;2022-12-07T06:39:06;21.30;53.20
35325;DHT22;35135;47.510;19.036;2022-12-07T06:41:31;21.30;53.20
35325;DHT22;35135;47.510;19.036;2022-12-07T06:43:57;21.30;53.00
35325;DHT22;35135;47.510;19.036;2022-12-07T06:46:23;21.30;53.10
35325;DHT22;35135;47.510;19.036;2022-12-07T06:48:49;21.40;53.00
35325;DHT22;35135;47.510;19.036;2022-12-07T06:51:18;21.30;53.00
35325;DHT22;35135;47.510;19.036;2022-12-07T06:53:44;21.40;53.00
35325;DHT22;35135;47.510;19.036;2022-12-07T06:56:10;21.30;53.10
35325;DHT22;35135;47.510;19.036;2022-12-07T06:58:35;21.30;53.10
35325;DHT22;35135;47.510;19.036;2022-12-07T07:01:01;21.30;53.20
35325;DHT22;35135;47.510;19.036;2022-12-07T07:03:28;21.30;53.00
35325;DHT22;35135;47.510;19.036;2022-12-07T07:05:53;21.30;53.20
35325;DHT22;35135;47.510;19.036;2022-12-07T07:08:19;21.20;53.10
35325;DHT22;35135;47.510;19.036;2022-12-07T07:10:45;21.20;53.20
35325;DHT22;35135;47.510;19.036;2022-12-07T07:13:10;21.20;53.20
35325;DHT22;35135;47.510;19.036;2022-12-07T07:15:37;21.20;53.30
35325;DHT22;35135;47.510;19.036;2022-12-07T07:18:03;21.20;53.30
35325;DHT22;35135;47.510;19.036;2022-12-07T07:20:29;21.10;53.40
35325;DHT22;35135;47.510;19.036;2022-12-07T07:22:55;21.10;53.60
35325;DHT22;35135;47.510;19.036;2022-12-07T07:25:21;21.00;52.20
35325;DHT22;35135;47.510;19.036;2022-12-07T07:27:47;21.00;51.10
35325;DHT22;35135;47.510;19.036;2022-12-07T07:30:12;20.90;51.50
35325;DHT22;35135;47.510;19.036;2022-12-07T07:32:38;20.80;52.10
35325;DHT22;35135;47.510;19.036;2022-12-07T07:35:04;20.80;52.20
35325;DHT22;35135;47.510;19.036;2022-12-07T07:37:30;20.80;52.20
35325;DHT22;35135;47.510;19.036;2022-12-07T07:39:55;20.80;52.20
35325;DHT22;35135;47.510;19.036;2022-12-07T07:42:21;20.70;52.30
35325;DHT22;35135;47.510;19.036;2022-12-07T07:44:47;20.70;52.30
35325;DHT22;35135;47.510;19.036;2022-12-07T07:47:13;20.70;52.50
35325;DHT22;35135;47.510;19.036;2022-12-07T07:49:38;20.70;52.60
35325;DHT22;35135;47.510;19.036;2022-12-07T07:52:05;20.70;52.70
35325;DHT22;35135;47.510;19.036;2022-12-07T07:54:31;20.60;52.70
35325;DHT22;35135;47.510;19.036;2022-12-07T07:56:57;20.60;52.70
35325;DHT22;35135;47.510;19.036;2022-12-07T07:59:22;20.60;52.80
35325;DHT22;35135;47.510;19.036;2022-12-07T08:01:48;20.60;52.60
35325;DHT22;35135;47.510;19.036;2022-12-07T08:04:14;20.60;52.60
35325;DHT22;35135;47.510;19.036;2022-12-07T08:06:39;20.60;52.70
35325;DHT22;35135;47.510;19.036;2022-12-07T08:09:07;20.60;52.70
35325;DHT22;35135;47.510;19.036;2022-12-07T08:11:34;20.60;52.70
35325;DHT22;35135;47.510;19.036;2022-12-07T08:14:00;20.50;52.70
35325;DHT22;35135;47.510;19.036;2022-12-07T08:16:26;20.50;52.70
35325;DHT22;35135;47.510;19.036;2022-12-07T08:18:52;20.50;52.70
35325;DHT22;35135;47.510;19.036;2022-12-07T08:21:17;20.50;52.80
35325;DHT22;35135;47.510;19.036;2022-12-07T08:23:43;20.50;52.90
35325;DHT22;35135;47.510;19.036;2022-12-07T08:26:11;20.50;52.80
35325;DHT22;35135;47.510;19.036;2022-12-07T08:28:37;20.50;52.80
35325;DHT22;35135;47.510;19.036;2022-12-07T08:31:06;20.50;52.90
35325;DHT22;35135;47.510;19.036;2022-12-07T08:33:32;20.50;52.90
35325;DHT22;35135;47.510;19.036;2022-12-07T08:36:02;20.50;52.90
35325;DHT22;35135;47.510;19.036;2022-12-07T08:38:28;20.50;52.90
35325;DHT22;35135;47.510;19.036;2022-12-07T08:40:58;20.50;53.00
35325;DHT22;35135;47.510;19.036;2022-12-07T08:43:24;20.50;53.00
35325;DHT22;35135;47.510;19.036;2022-12-07T08:48:44;20.50;53.00
35325;DHT22;35135;47.510;19.036;2022-12-07T08:51:11;20.50;53.00
35325;DHT22;35135;47.510;19.036;2022-12-07T08:53:38;20.50;53.00
35325;DHT22;35135;47.510;19.036;2022-12-07T08:56:04;20.50;53.00
35325;DHT22;35135;47.510;19.036;2022-12-07T08:58:32;20.50;53.00
35325;DHT22;35135;47.510;19.036;2022-12-07T09:00:58;20.50;53.00
35325;DHT22;35135;47.510;19.036;2022-12-07T09:03:23;20.50;53.10
35325;DHT22;35135;47.510;19.036;2022-12-07T09:05:49;20.50;53.10
35325;DHT22;35135;47.510;19.036;2022-12-07T09:08:15;20.50;53.10
35325;DHT22;35135;47.510;19.036;2022-12-07T09:10:41;20.40;53.30
35325;DHT22;35135;47.510;19.036;2022-12-07T09:13:06;20.40;53.10
35325;DHT22;35135;47.510;19.036;2022-12-07T09:15:33;20.40;53.20
35325;DHT22;35135;47.510;19.036;2022-12-07T09:17:58;20.40;53.20
35325;DHT22;35135;47.510;19.036;2022-12-07T09:20:24;20.40;53.20
35325;DHT22;35135;47.510;19.036;2022-12-07T09:22:50;20.40;53.20
35325;DHT22;35135;47.510;19.036;2022-12-07T09:25:15;20.40;53.20
35325;DHT22;35135;47.510;19.036;2022-12-07T09:27:41;20.40;53.20
35325;DHT22;35135;47.510;19.036;2022-12-07T09:30:08;20.40;53.20
35325;DHT22;35135;47.510;19.036;2022-12-07T09:32:33;20.40;53.20
35325;DHT22;35135;47.510;19.036;2022-12-07T09:34:59;20.40;53.20
35325;DHT22;35135;47.510;19.036;2022-12-07T09:37:25;20.40;53.20
35325;DHT22;35135;47.510;19.036;2022-12-07T09:39:50;20.30;53.20
35325;DHT22;35135;47.510;19.036;2022-12-07T09:42:38;20.40;53.30
35325;DHT22;35135;47.510;19.036;2022-12-07T09:45:36;20.40;53.20
35325;DHT22;35135;47.510;19.036;2022-12-07T09:48:02;20.40;53.30
35325;DHT22;35135;47.510;19.036;2022-12-07T09:50:29;20.30;53.20
35325;DHT22;35135;47.510;19.036;2022-12-07T09:53:12;20.30;53.20
35325;DHT22;35135;47.510;19.036;2022-12-07T09:55:41;20.30;53.20
35325;DHT22;35135;47.510;19.036;2022-12-07T09:58:16;20.30;53.20
35325;DHT22;35135;47.510;19.036;2022-12-07T10:00:43;20.30;53.70
35325;DHT22;35135;47.510;19.036;2022-12-07T10:03:10;20.30;53.20
35325;DHT22;35135;47.510;19.036;2022-12-07T10:05:45;20.30;53.20
35325;DHT22;35135;47.510;19.036;2022-12-07T10:08:12;20.30;53.30
35325;DHT22;35135;47.510;19.036;2022-12-07T10:10:39;20.30;53.30
35325;DHT22;35135;47.510;19.036;2022-12-07T10:20:47;20.30;53.40
35325;DHT22;35135;47.510;19.036;2022-12-07T10:23:17;20.30;53.30
35325;DHT22;35135;47.510;19.036;2022-12-07T10:25:44;20.30;53.40
35325;DHT22;35135;47.510;19.036;2022-12-07T10:30:51;20.30;53.30
35325;DHT22;35135;47.510;19.036;2022-12-07T10:36:01;20.30;53.40
35325;DHT22;35135;47.510;19.036;2022-12-07T10:38:51;20.30;53.40
35325;DHT22;35135;47.510;19.036;2022-12-07T10:41:17;20.30;53.40
35325;DHT22;35135;47.510;19.036;2022-12-07T10:43:53;20.30;53.40
35325;DHT22;35135;47.510;19.036;2022-12-07T10:49:08;20.20;53.40
35325;DHT22;35135;47.510;19.036;2022-12-07T10:51:45;20.20;53.40
35325;DHT22;35135;47.510;19.036;2022-12-07T11:00:08;20.20;53.40
35325;DHT22;35135;47.510;19.036;2022-12-07T11:16:32;20.20;53.40
35325;DHT22;35135;47.510;19.036;2022-12-07T11:21:57;20.20;53.30
35325;DHT22;35135;47.510;19.036;2022-12-07T11:24:35;20.20;53.20
35325;DHT22;35135;47.510;19.036;2022-12-07T11:37:51;20.20;53.30
35325;DHT22;35135;47.510;19.036;2022-12-07T11:40:26;20.20;53.30
35325;DHT22;35135;47.510;19.036;2022-12-07T11:45:41;20.10;53.20
35325;DHT22;35135;47.510;19.036;2022-12-07T11:48:22;20.10;53.20
35325;DHT22;35135;47.510;19.036;2022-12-07T11:50:54;20.10;53.20
35325;DHT22;35135;47.510;19.036;2022-12-07T11:53:45;20.10;53.20
35325;DHT22;35135;47.510;19.036;2022-12-07T11:56:21;20.10;53.20
35325;DHT22;35135;47.510;19.036;2022-12-07T12:06:23;20.10;53.10
35325;DHT22;35135;47.510;19.036;2022-12-07T12:09:14;20.10;53.10
35325;DHT22;35135;47.510;19.036;2022-12-07T12:22:32;20.10;53.00
35325;DHT22;35135;47.510;19.036;2022-12-07T12:24:59;20.10;53.00
35325;DHT22;35135;47.510;19.036;2022-12-07T12:27:29;20.10;53.00
35325;DHT22;35135;47.510;19.036;2022-12-07T12:29:59;20.10;53.00
35325;DHT22;35135;47.510;19.036;2022-12-07T12:32:42;20.10;53.00
35325;DHT22;35135;47.510;19.036;2022-12-07T12:37:53;20.10;53.10
35325;DHT22;35135;47.510;19.036;2022-12-07T12:42:54;20.10;53.10
35325;DHT22;35135;47.510;19.036;2022-12-07T12:50:39;20.10;53.20
35325;DHT22;35135;47.510;19.036;2022-12-07T12:53:23;20.10;53.20
35325;DHT22;35135;47.510;19.036;2022-12-07T13:00:46;20.10;53.20
35325;DHT22;35135;47.510;19.036;2022-12-07T13:03:30;20.10;53.20
35325;DHT22;35135;47.510;19.036;2022-12-07T13:08:55;20.10;53.20
35325;DHT22;35135;47.510;19.036;2022-12-07T13:11:32;20.10;53.20
35325;DHT22;35135;47.510;19.036;2022-12-07T13:17:02;20.00;53.10
35325;DHT22;35135;47.510;19.036;2022-12-07T13:28:18;20.00;53.20
35325;DHT22;35135;47.510;19.036;2022-12-07T13:31:04;20.00;53.10
35325;DHT22;35135;47.510;19.036;2022-12-07T13:33:35;20.00;53.20
35325;DHT22;35135;47.510;19.036;2022-12-07T13:36:01;20.00;53.20
35325;DHT22;35135;47.510;19.036;2022-12-07T13:38:33;20.00;53.20
35325;DHT22;35135;47.510;19.036;2022-12-07T13:43:45;20.00;53.60
35325;DHT22;35135;47.510;19.036;2022-12-07T13:46:11;20.00;53.70
35325;DHT22;35135;47.510;19.036;2022-12-07T13:48:46;20.00;53.80
35325;DHT22;35135;47.510;19.036;2022-12-07T13:51:25;20.10;53.90
35325;DHT22;35135;47.510;19.036;2022-12-07T13:53:59;20.10;53.80
35325;DHT22;35135;47.510;19.036;2022-12-07T13:56:35;20.20;53.80
35325;DHT22;35135;47.510;19.036;2022-12-07T13:59:01;20.30;53.70
35325;DHT22;35135;47.510;19.036;2022-12-07T14:01:29;20.40;53.60
35325;DHT22;35135;47.510;19.036;2022-12-07T14:03:55;20.50;53.40
35325;DHT22;35135;47.510;19.036;2022-12-07T14:06:26;20.60;53.20
35325;DHT22;35135;47.510;19.036;2022-12-07T14:09:18;20.70;53.00
35325;DHT22;35135;47.510;19.036;2022-12-07T14:11:45;20.80;52.90
35325;DHT22;35135;47.510;19.036;2022-12-07T14:14:20;21.00;52.60
35325;DHT22;35135;47.510;19.036;2022-12-07T14:17:11;21.00;52.40
35325;DHT22;35135;47.510;19.036;2022-12-07T14:19:44;21.10;52.30
35325;DHT22;35135;47.510;19.036;2022-12-07T14:22:23;21.20;52.10
35325;DHT22;35135;47.510;19.036;2022-12-07T14:24:49;21.30;52.00
35325;DHT22;35135;47.510;19.036;2022-12-07T14:27:23;21.30;51.80
35325;DHT22;35135;47.510;19.036;2022-12-07T14:29:56;21.30;51.70
35325;DHT22;35135;47.510;19.036;2022-12-07T14:32:28;21.30;51.60
35325;DHT22;35135;47.510;19.036;2022-12-07T14:37:27;21.30;51.60
35325;DHT22;35135;47.510;19.036;2022-12-07T14:39:53;21.20;51.60
35325;DHT22;35135;47.510;19.036;2022-12-07T14:42:19;21.30;51.70
35325;DHT22;35135;47.510;19.036;2022-12-07T14:44:45;21.20;51.70
35325;DHT22;35135;47.510;19.036;2022-12-07T14:47:11;21.20;51.70
35325;DHT22;35135;47.510;19.036;2022-12-07T14:49:37;21.20;51.70
35325;DHT22;35135;47.510;19.036;2022-12-07T14:52:03;21.20;51.60
35325;DHT22;35135;47.510;19.036;2022-12-07T14:54:31;21.10;51.70
35325;DHT22;35135;47.510;19.036;2022-12-07T14:56:57;21.10;51.80
35325;DHT22;35135;47.510;19.036;2022-12-07T14:59:23;21.10;51.70
35325;DHT22;35135;47.510;19.036;2022-12-07T15:01:49;21.10;51.60
35325;DHT22;35135;47.510;19.036;2022-12-07T15:04:15;21.10;51.80
35325;DHT22;35135;47.510;19.036;2022-12-07T15:06:40;21.00;51.70
35325;DHT22;35135;47.510;19.036;2022-12-07T15:09:10;21.00;51.70
35325;DHT22;35135;47.510;19.036;2022-12-07T15:11:36;21.00;51.80
35325;DHT22;35135;47.510;19.036;2022-12-07T15:14:02;20.90;51.70
35325;DHT22;35135;47.510;19.036;2022-12-07T15:16:34;20.90;52.00
35325;DHT22;35135;47.510;19.036;2022-12-07T15:19:00;20.90;52.00
35325;DHT22;35135;47.510;19.036;2022-12-07T15:21:26;20.90;51.80
35325;DHT22;35135;47.510;19.036;2022-12-07T15:23:51;20.90;52.00
35325;DHT22;35135;47.510;19.036;2022-12-07T15:26:17;20.80;52.00
35325;DHT22;35135;47.510;19.036;2022-12-07T15:28:42;20.80;52.00
35325;DHT22;35135;47.510;19.036;2022-12-07T15:31:16;20.80;51.60
35325;DHT22;35135;47.510;19.036;2022-12-07T15:33:42;20.70;51.90
35325;DHT22;35135;47.510;19.036;2022-12-07T15:36:18;20.70;51.90
35325;DHT22;35135;47.510;19.036;2022-12-07T15:38:44;20.70;51.90
35325;DHT22;35135;47.510;19.036;2022-12-07T15:41:10;20.60;51.80
35325;DHT22;35135;47.510;19.036;2022-12-07T15:43:36;20.60;51.90
35325;DHT22;35135;47.510;19.036;2022-12-07T15:46:20;20.60;51.80
35325;DHT22;35135;47.510;19.036;2022-12-07T15:48:46;20.60;51.80
35325;DHT22;35135;47.510;19.036;2022-12-07T15:51:12;20.60;51.60
35325;DHT22;35135;47.510;19.036;2022-12-07T15:53:38;20.60;51.80
35325;DHT22;35135;47.510;19.036;2022-12-07T15:56:07;20.60;51.50
35325;DHT22;35135;47.510;19.036;2022-12-07T15:58:33;20.50;51.50
35325;DHT22;35135;47.510;19.036;2022-12-07T16:00:59;20.50;51.60
35325;DHT22;35135;47.510;19.036;2022-12-07T16:03:26;20.50;51.70
35325;DHT22;35135;47.510;19.036;2022-12-07T16:05:52;20.50;51.90
35325;DHT22;35135;47.510;19.036;2022-12-07T16:08:18;20.50;51.90
35325;DHT22;35135;47.510;19.036;2022-12-07T16:10:44;20.50;52.00
35325;DHT22;35135;47.510;19.036;2022-12-07T16:13:11;20.50;52.00
35325;DHT22;35135;47.510;19.036;2022-12-07T16:15:40;20.50;52.00
35325;DHT22;35135;47.510;19.036;2022-12-07T16:18:06;20.50;52.10
35325;DHT22;35135;47.510;19.036;2022-12-07T16:20:32;20.50;52.10
35325;DHT22;35135;47.510;19.036;2022-12-07T16:22:58;20.50;52.10
35325;DHT22;35135;47.510;19.036;2022-12-07T16:25:23;20.50;51.90
35325;DHT22;35135;47.510;19.036;2022-12-07T16:27:50;20.50;52.10
35325;DHT22;35135;47.510;19.036;2022-12-07T16:30:16;20.50;52.20
35325;DHT22;35135;47.510;19.036;2022-12-07T16:32:42;20.50;51.80
35325;DHT22;35135;47.510;19.036;2022-12-07T16:35:08;20.50;52.10
35325;DHT22;35135;47.510;19.036;2022-12-07T16:37:34;20.70;52.10
35325;DHT22;35135;47.510;19.036;2022-12-07T16:40:00;20.70;52.00
35325;DHT22;35135;47.510;19.036;2022-12-07T16:42:26;20.80;51.90
35325;DHT22;35135;47.510;19.036;2022-12-07T16:44:52;20.90;51.80
35325;DHT22;35135;47.510;19.036;2022-12-07T16:47:18;21.00;51.60
35325;DHT22;35135;47.510;19.036;2022-12-07T16:49:43;21.10;51.30
35325;DHT22;35135;47.510;19.036;2022-12-07T16:52:09;21.20;51.20
35325;DHT22;35135;47.510;19.036;2022-12-07T16:54:36;21.20;51.10
35325;DHT22;35135;47.510;19.036;2022-12-07T16:57:01;21.20;51.10
35325;DHT22;35135;47.510;19.036;2022-12-07T16:59:28;21.30;51.00
35325;DHT22;35135;47.510;19.036;2022-12-07T17:01:54;21.30;51.10
35325;DHT22;35135;47.510;19.036;2022-12-07T17:04:19;21.30;50.90
35325;DHT22;35135;47.510;19.036;2022-12-07T17:06:45;21.30;50.90
35325;DHT22;35135;47.510;19.036;2022-12-07T17:09:10;21.20;50.80
35325;DHT22;35135;47.510;19.036;2022-12-07T17:11:37;21.20;50.80
35325;DHT22;35135;47.510;19.036;2022-12-07T17:14:03;21.20;50.60
35325;DHT22;35135;47.510;19.036;2022-12-07T17:16:47;21.20;50.80
35325;DHT22;35135;47.510;19.036;2022-12-07T17:19:15;21.20;50.90
35325;DHT22;35135;47.510;19.036;2022-12-07T17:21:42;21.20;50.90
35325;DHT22;35135;47.510;19.036;2022-12-07T17:24:10;21.10;51.00
35325;DHT22;35135;47.510;19.036;2022-12-07T17:26:36;21.10;51.10
35325;DHT22;35135;47.510;19.036;2022-12-07T17:29:02;21.00;51.10
35325;DHT22;35135;47.510;19.036;2022-12-07T17:31:28;21.00;51.30
35325;DHT22;35135;47.510;19.036;2022-12-07T17:33:54;21.00;51.30
35325;DHT22;35135;47.510;19.036;2022-12-07T17:36:25;21.00;51.50
35325;DHT22;35135;47.510;19.036;2022-12-07T17:38:51;20.90;51.40
35325;DHT22;35135;47.510;19.036;2022-12-07T17:41:22;20.90;51.40
35325;DHT22;35135;47.510;19.036;2022-12-07T17:44:12;20.90;49.70